sensor_id;sensor_type;location;lat;lon;timestamp;P1;durP1;ratioP1;P2;durP2;ratioP2
16963;SDS011;8598;50.508;10.436;2022-09-01T00:01:26;3.63;;;2.67;;
16963;SDS011;8598;50.508;10.436;2022-09-01T00:03:54;5.80;;;2.90;;
16963;SDS011;8598;50.508;10.436;2022-09-01T00:06:28;4.37;;;2.90;;
16963;SDS011;8598;50.508;10.436;2022-09-01T00:08:57;3.30;;;2.90;;
16963;SDS011;8598;50.508;10.436;2022-09-01T00:11:26;3.93;;;2.70;;
16963;SDS011;8598;50.508;10.436;2022-09-01T00:13:55;8.67;;;2.83;;
16963;SDS011;8598;50.508;10.436;2022-09-01T00:16:23;7.00;;;2.90;;
16963;SDS011;8598;50.508;10.436;2022-09-01T00:18:51;2.90;;;2.60;;
16963;SDS011;8598;50.508;10.436;2022-09-01T00:21:20;2.97;;;2.70;;
16963;SDS011;8598;50.508;10.436;2022-09-01T00:23:49;4.03;;;2.77;;
16963;SDS011;8598;50.508;10.436;2022-09-01T00:26:16;2.60;;;2.40;;
16963;SDS011;8598;50.508;10.436;2022-09-01T00:28:43;5.53;;;2.47;;
16963;SDS011;8598;50.508;10.436;2022-09-01T00:31:11;3.23;;;2.57;;
16963;SDS011;8598;50.508;10.436;2022-09-01T00:33:40;6.20;;;2.50;;
16963;SDS011;8598;50.508;10.436;2022-09-01T00:36:07;5.07;;;2.50;;
16963;SDS011;8598;50.508;10.436;2022-09-01T00:38:34;2.80;;;2.60;;
16963;SDS011;8598;50.508;10.436;2022-09-01T00:41:02;2.63;;;2.43;;
16963;SDS011;8598;50.508;10.436;2022-09-01T00:43:35;2.67;;;2.47;;
16963;SDS011;8598;50.508;10.436;2022-09-01T00:46:04;2.73;;;2.53;;
16963;SDS011;8598;50.508;10.436;2022-09-01T00:48:33;3.00;;;2.70;;
16963;SDS011;8598;50.508;10.436;2022-09-01T00:51:01;2.70;;;2.50;;
16963;SDS011;8598;50.508;10.436;2022-09-01T00:53:29;4.47;;;3.07;;
16963;SDS011;8598;50.508;10.436;2022-09-01T00:55:56;3.50;;;3.20;;
16963;SDS011;8598;50.508;10.436;2022-09-01T00:58:23;3.73;;;3.40;;
16963;SDS011;8598;50.508;10.436;2022-09-01T01:00:51;2.97;;;2.67;;
16963;SDS011;8598;50.508;10.436;2022-09-01T01:03:18;3.53;;;2.70;;
16963;SDS011;8598;50.508;10.436;2022-09-01T01:05:46;3.10;;;2.80;;
16963;SDS011;8598;50.508;10.436;2022-09-01T01:08:19;3.60;;;2.60;;
16963;SDS011;8598;50.508;10.436;2022-09-01T01:10:55;2.97;;;2.70;;
16963;SDS011;8598;50.508;10.436;2022-09-01T01:13:21;3.17;;;2.80;;
16963;SDS011;8598;50.508;10.436;2022-09-01T01:15:49;4.83;;;3.20;;
16963;SDS011;8598;50.508;10.436;2022-09-01T01:18:16;5.20;;;3.07;;
16963;SDS011;8598;50.508;10.436;2022-09-01T01:20:43;3.37;;;3.07;;
16963;SDS011;8598;50.508;10.436;2022-09-01T01:23:32;6.40;;;2.93;;
16963;SDS011;8598;50.508;10.436;2022-09-01T01:26:06;2.77;;;2.57;;
16963;SDS011;8598;50.508;10.436;2022-09-01T01:28:35;4.20;;;3.13;;
16963;SDS011;8598;50.508;10.436;2022-09-01T01:31:04;7.30;;;2.80;;
16963;SDS011;8598;50.508;10.436;2022-09-01T01:33:36;3.03;;;2.70;;
16963;SDS011;8598;50.508;10.436;2022-09-01T01:36:06;2.80;;;2.50;;
16963;SDS011;8598;50.508;10.436;2022-09-01T01:38:36;4.37;;;3.00;;
16963;SDS011;8598;50.508;10.436;2022-09-01T01:41:07;4.80;;;3.07;;
16963;SDS011;8598;50.508;10.436;2022-09-01T01:43:33;3.47;;;2.73;;
16963;SDS011;8598;50.508;10.436;2022-09-01T01:46:02;3.83;;;3.27;;
16963;SDS011;8598;50.508;10.436;2022-09-01T01:48:32;4.77;;;2.97;;
16963;SDS011;8598;50.508;10.436;2022-09-01T01:51:01;2.60;;;2.40;;
16963;SDS011;8598;50.508;10.436;2022-09-01T01:53:29;3.23;;;2.93;;
16963;SDS011;8598;50.508;10.436;2022-09-01T01:55:56;5.00;;;2.67;;
16963;SDS011;8598;50.508;10.436;2022-09-01T01:58:26;3.03;;;2.67;;
16963;SDS011;8598;50.508;10.436;2022-09-01T02:00:55;3.20;;;2.83;;
16963;SDS011;8598;50.508;10.436;2022-09-01T02:03:23;4.67;;;3.17;;
16963;SDS011;8598;50.508;10.436;2022-09-01T02:05:54;3.20;;;2.90;;
16963;SDS011;8598;50.508;10.436;2022-09-01T02:08:22;3.73;;;2.93;;
16963;SDS011;8598;50.508;10.436;2022-09-01T02:10:51;4.80;;;3.10;;
16963;SDS011;8598;50.508;10.436;2022-09-01T02:13:20;4.67;;;3.00;;
16963;SDS011;8598;50.508;10.436;2022-09-01T02:15:56;3.43;;;2.80;;
16963;SDS011;8598;50.508;10.436;2022-09-01T02:18:26;6.20;;;3.20;;
16963;SDS011;8598;50.508;10.436;2022-09-01T02:20:55;7.23;;;3.20;;
16963;SDS011;8598;50.508;10.436;2022-09-01T02:23:23;3.87;;;3.47;;
16963;SDS011;8598;50.508;10.436;2022-09-01T02:25:51;4.20;;;3.27;;
16963;SDS011;8598;50.508;10.436;2022-09-01T02:28:20;3.30;;;3.00;;
16963;SDS011;8598;50.508;10.436;2022-09-01T02:30:50;3.70;;;3.30;;
16963;SDS011;8598;50.508;10.436;2022-09-01T02:33:20;3.80;;;3.03;;
16963;SDS011;8598;50.508;10.436;2022-09-01T02:35:50;4.80;;;3.37;;
16963;SDS011;8598;50.508;10.436;2022-09-01T02:38:18;5.07;;;3.47;;
16963;SDS011;8598;50.508;10.436;2022-09-01T02:40:50;4.37;;;3.87;;
16963;SDS011;8598;50.508;10.436;2022-09-01T02:43:18;4.43;;;3.70;;
16963;SDS011;8598;50.508;10.436;2022-09-01T02:45:46;3.43;;;3.10;;
16963;SDS011;8598;50.508;10.436;2022-09-01T02:48:21;4.33;;;3.10;;
16963;SDS011;8598;50.508;10.436;2022-09-01T02:50:51;4.93;;;3.33;;
16963;SDS011;8598;50.508;10.436;2022-09-01T02:53:20;6.47;;;3.40;;
16963;SDS011;8598;50.508;10.436;2022-09-01T02:55:47;4.80;;;3.33;;
16963;SDS011;8598;50.508;10.436;2022-09-01T02:58:15;3.63;;;3.33;;
16963;SDS011;8598;50.508;10.436;2022-09-01T03:00:44;3.63;;;3.33;;
16963;SDS011;8598;50.508;10.436;2022-09-01T03:03:11;3.60;;;3.30;;
16963;SDS011;8598;50.508;10.436;2022-09-01T03:05:42;4.87;;;4.03;;
16963;SDS011;8598;50.508;10.436;2022-09-01T03:08:10;4.70;;;3.60;;
16963;SDS011;8598;50.508;10.436;2022-09-01T03:10:41;3.77;;;3.40;;
16963;SDS011;8598;50.508;10.436;2022-09-01T03:13:12;5.30;;;3.67;;
16963;SDS011;8598;50.508;10.436;2022-09-01T03:15:40;3.33;;;3.03;;
16963;SDS011;8598;50.508;10.436;2022-09-01T03:18:08;4.57;;;3.47;;
16963;SDS011;8598;50.508;10.436;2022-09-01T03:20:37;6.50;;;3.43;;
16963;SDS011;8598;50.508;10.436;2022-09-01T03:23:09;3.73;;;3.43;;
16963;SDS011;8598;50.508;10.436;2022-09-01T03:25:39;4.90;;;3.17;;
16963;SDS011;8598;50.508;10.436;2022-09-01T03:28:06;4.60;;;3.47;;
16963;SDS011;8598;50.508;10.436;2022-09-01T03:30:34;4.90;;;4.00;;
16963;SDS011;8598;50.508;10.436;2022-09-01T03:33:05;5.80;;;3.60;;
16963;SDS011;8598;50.508;10.436;2022-09-01T03:35:32;4.47;;;4.07;;
16963;SDS011;8598;50.508;10.436;2022-09-01T03:38:00;4.43;;;3.80;;
16963;SDS011;8598;50.508;10.436;2022-09-01T03:40:30;6.10;;;4.47;;
16963;SDS011;8598;50.508;10.436;2022-09-01T03:43:00;4.93;;;3.70;;
16963;SDS011;8598;50.508;10.436;2022-09-01T03:45:28;4.13;;;3.73;;
16963;SDS011;8598;50.508;10.436;2022-09-01T03:48:00;4.53;;;4.10;;
16963;SDS011;8598;50.508;10.436;2022-09-01T03:50:30;3.80;;;3.50;;
16963;SDS011;8598;50.508;10.436;2022-09-01T03:52:58;4.07;;;3.63;;
16963;SDS011;8598;50.508;10.436;2022-09-01T03:55:28;4.30;;;3.90;;
16963;SDS011;8598;50.508;10.436;2022-09-01T03:57:59;6.83;;;4.13;;
16963;SDS011;8598;50.508;10.436;2022-09-01T04:00:31;6.10;;;4.40;;
16963;SDS011;8598;50.508;10.436;2022-09-01T04:03:00;4.20;;;3.80;;
16963;SDS011;8598;50.508;10.436;2022-09-01T04:05:29;5.13;;;4.03;;
16963;SDS011;8598;50.508;10.436;2022-09-01T04:07:58;5.40;;;4.50;;
16963;SDS011;8598;50.508;10.436;2022-09-01T04:10:29;5.80;;;4.13;;
16963;SDS011;8598;50.508;10.436;2022-09-01T04:12:57;5.83;;;4.67;;
16963;SDS011;8598;50.508;10.436;2022-09-01T04:15:25;4.43;;;4.00;;
16963;SDS011;8598;50.508;10.436;2022-09-01T04:17:53;4.40;;;4.00;;
16963;SDS011;8598;50.508;10.436;2022-09-01T04:20:36;7.07;;;4.40;;
16963;SDS011;8598;50.508;10.436;2022-09-01T04:23:15;4.40;;;4.00;;
16963;SDS011;8598;50.508;10.436;2022-09-01T04:25:52;4.57;;;4.00;;
16963;SDS011;8598;50.508;10.436;2022-09-01T04:28:22;4.97;;;4.50;;
16963;SDS011;8598;50.508;10.436;2022-09-01T04:30:51;5.77;;;4.43;;
16963;SDS011;8598;50.508;10.436;2022-09-01T04:33:20;5.37;;;4.73;;
16963;SDS011;8598;50.508;10.436;2022-09-01T04:35:48;6.20;;;4.57;;
16963;SDS011;8598;50.508;10.436;2022-09-01T04:38:21;5.63;;;4.50;;
16963;SDS011;8598;50.508;10.436;2022-09-01T04:40:49;6.83;;;4.23;;
16963;SDS011;8598;50.508;10.436;2022-09-01T04:43:21;4.87;;;4.43;;
16963;SDS011;8598;50.508;10.436;2022-09-01T04:45:48;5.63;;;4.80;;
16963;SDS011;8598;50.508;10.436;2022-09-01T04:48:16;5.20;;;4.70;;
16963;SDS011;8598;50.508;10.436;2022-09-01T04:50:44;5.80;;;4.97;;
16963;SDS011;8598;50.508;10.436;2022-09-01T04:53:13;6.00;;;5.40;;
16963;SDS011;8598;50.508;10.436;2022-09-01T04:55:42;6.43;;;5.20;;
16963;SDS011;8598;50.508;10.436;2022-09-01T04:58:12;6.43;;;5.13;;
16963;SDS011;8598;50.508;10.436;2022-09-01T05:00:42;6.43;;;4.83;;
16963;SDS011;8598;50.508;10.436;2022-09-01T05:03:12;5.00;;;4.50;;
16963;SDS011;8598;50.508;10.436;2022-09-01T05:05:40;5.77;;;4.90;;
16963;SDS011;8598;50.508;10.436;2022-09-01T05:08:09;6.10;;;5.50;;
16963;SDS011;8598;50.508;10.436;2022-09-01T05:10:39;6.60;;;4.90;;
16963;SDS011;8598;50.508;10.436;2022-09-01T05:13:07;5.67;;;5.10;;
16963;SDS011;8598;50.508;10.436;2022-09-01T05:15:38;6.27;;;4.73;;
16963;SDS011;8598;50.508;10.436;2022-09-01T05:18:11;9.50;;;4.80;;
16963;SDS011;8598;50.508;10.436;2022-09-01T05:20:40;7.40;;;4.87;;
16963;SDS011;8598;50.508;10.436;2022-09-01T05:23:08;7.53;;;4.90;;
16963;SDS011;8598;50.508;10.436;2022-09-01T05:25:38;5.20;;;4.70;;
16963;SDS011;8598;50.508;10.436;2022-09-01T05:28:07;5.20;;;4.70;;
16963;SDS011;8598;50.508;10.436;2022-09-01T05:30:38;5.03;;;4.53;;
16963;SDS011;8598;50.508;10.436;2022-09-01T05:33:07;6.13;;;4.53;;
16963;SDS011;8598;50.508;10.436;2022-09-01T05:35:35;5.00;;;3.87;;
16963;SDS011;8598;50.508;10.436;2022-09-01T05:38:04;4.23;;;2.90;;
16963;SDS011;8598;50.508;10.436;2022-09-01T05:40:37;4.30;;;3.30;;
16963;SDS011;8598;50.508;10.436;2022-09-01T05:43:05;5.63;;;3.37;;
16963;SDS011;8598;50.508;10.436;2022-09-01T05:45:35;3.77;;;3.30;;
16963;SDS011;8598;50.508;10.436;2022-09-01T05:48:04;4.93;;;3.43;;
16963;SDS011;8598;50.508;10.436;2022-09-01T05:50:33;3.03;;;2.67;;
16963;SDS011;8598;50.508;10.436;2022-09-01T05:53:04;4.50;;;2.40;;
16963;SDS011;8598;50.508;10.436;2022-09-01T05:55:35;4.93;;;2.37;;
16963;SDS011;8598;50.508;10.436;2022-09-01T05:58:02;4.00;;;2.33;;
16963;SDS011;8598;50.508;10.436;2022-09-01T06:00:29;3.00;;;2.40;;
16963;SDS011;8598;50.508;10.436;2022-09-01T06:03:00;3.97;;;2.17;;
16963;SDS011;8598;50.508;10.436;2022-09-01T06:05:28;3.03;;;2.20;;
16963;SDS011;8598;50.508;10.436;2022-09-01T06:07:56;7.90;;;2.60;;
16963;SDS011;8598;50.508;10.436;2022-09-01T06:10:23;2.33;;;1.77;;
16963;SDS011;8598;50.508;10.436;2022-09-01T06:12:51;2.90;;;1.73;;
16963;SDS011;8598;50.508;10.436;2022-09-01T06:15:18;6.43;;;2.40;;
16963;SDS011;8598;50.508;10.436;2022-09-01T06:17:45;4.53;;;2.00;;
16963;SDS011;8598;50.508;10.436;2022-09-01T06:20:13;3.67;;;2.20;;
16963;SDS011;8598;50.508;10.436;2022-09-01T06:22:42;2.27;;;1.77;;
16963;SDS011;8598;50.508;10.436;2022-09-01T06:25:09;4.90;;;2.13;;
16963;SDS011;8598;50.508;10.436;2022-09-01T06:27:36;5.33;;;2.63;;
16963;SDS011;8598;50.508;10.436;2022-09-01T06:30:06;4.30;;;2.20;;
16963;SDS011;8598;50.508;10.436;2022-09-01T06:32:38;5.30;;;2.47;;
16963;SDS011;8598;50.508;10.436;2022-09-01T06:35:08;2.83;;;2.30;;
16963;SDS011;8598;50.508;10.436;2022-09-01T06:37:37;6.03;;;2.37;;
16963;SDS011;8598;50.508;10.436;2022-09-01T06:40:04;2.30;;;2.10;;
16963;SDS011;8598;50.508;10.436;2022-09-01T06:42:41;4.67;;;2.10;;
16963;SDS011;8598;50.508;10.436;2022-09-01T06:45:09;6.80;;;2.40;;
16963;SDS011;8598;50.508;10.436;2022-09-01T06:47:36;4.47;;;2.40;;
16963;SDS011;8598;50.508;10.436;2022-09-01T06:50:05;4.53;;;2.10;;
16963;SDS011;8598;50.508;10.436;2022-09-01T06:52:32;6.10;;;2.30;;
16963;SDS011;8598;50.508;10.436;2022-09-01T06:55:01;7.07;;;2.50;;
16963;SDS011;8598;50.508;10.436;2022-09-01T06:57:30;4.47;;;2.90;;
16963;SDS011;8598;50.508;10.436;2022-09-01T06:59:57;2.60;;;2.40;;
16963;SDS011;8598;50.508;10.436;2022-09-01T07:02:24;3.20;;;2.87;;
16963;SDS011;8598;50.508;10.436;2022-09-01T07:04:51;5.47;;;2.97;;
16963;SDS011;8598;50.508;10.436;2022-09-01T07:07:17;6.20;;;2.73;;
16963;SDS011;8598;50.508;10.436;2022-09-01T07:09:46;4.73;;;2.57;;
16963;SDS011;8598;50.508;10.436;2022-09-01T07:12:14;7.97;;;2.90;;
16963;SDS011;8598;50.508;10.436;2022-09-01T07:14:43;6.20;;;3.43;;
16963;SDS011;8598;50.508;10.436;2022-09-01T07:17:12;3.03;;;2.80;;
16963;SDS011;8598;50.508;10.436;2022-09-01T07:19:39;4.80;;;2.47;;
16963;SDS011;8598;50.508;10.436;2022-09-01T07:22:07;6.07;;;2.53;;
16963;SDS011;8598;50.508;10.436;2022-09-01T07:24:34;8.03;;;2.63;;
16963;SDS011;8598;50.508;10.436;2022-09-01T07:27:01;9.70;;;2.47;;
16963;SDS011;8598;50.508;10.436;2022-09-01T07:29:29;5.67;;;2.50;;
16963;SDS011;8598;50.508;10.436;2022-09-01T07:31:57;6.37;;;2.40;;
16963;SDS011;8598;50.508;10.436;2022-09-01T07:34:23;8.50;;;2.20;;
16963;SDS011;8598;50.508;10.436;2022-09-01T07:36:51;6.80;;;2.10;;
16963;SDS011;8598;50.508;10.436;2022-09-01T07:39:23;7.40;;;2.63;;
16963;SDS011;8598;50.508;10.436;2022-09-01T07:41:49;2.60;;;2.30;;
16963;SDS011;8598;50.508;10.436;2022-09-01T07:44:17;4.27;;;2.13;;
16963;SDS011;8598;50.508;10.436;2022-09-01T07:46:45;6.93;;;2.47;;
16963;SDS011;8598;50.508;10.436;2022-09-01T07:49:16;8.10;;;2.13;;
16963;SDS011;8598;50.508;10.436;2022-09-01T07:51:43;12.57;;;2.50;;
16963;SDS011;8598;50.508;10.436;2022-09-01T07:54:15;10.63;;;2.50;;
16963;SDS011;8598;50.508;10.436;2022-09-01T07:56:42;3.97;;;1.87;;
16963;SDS011;8598;50.508;10.436;2022-09-01T07:59:09;14.57;;;8.63;;
16963;SDS011;8598;50.508;10.436;2022-09-01T08:01:38;10.07;;;2.27;;
16963;SDS011;8598;50.508;10.436;2022-09-01T08:04:08;4.90;;;1.57;;
16963;SDS011;8598;50.508;10.436;2022-09-01T08:06:35;23.03;;;12.23;;
16963;SDS011;8598;50.508;10.436;2022-09-01T08:09:02;11.07;;;2.63;;
16963;SDS011;8598;50.508;10.436;2022-09-01T08:11:30;6.97;;;1.97;;
16963;SDS011;8598;50.508;10.436;2022-09-01T08:13:58;2.80;;;1.70;;
16963;SDS011;8598;50.508;10.436;2022-09-01T08:16:26;2.83;;;1.67;;
16963;SDS011;8598;50.508;10.436;2022-09-01T08:18:54;6.30;;;1.50;;
16963;SDS011;8598;50.508;10.436;2022-09-01T08:21:23;4.00;;;1.57;;
16963;SDS011;8598;50.508;10.436;2022-09-01T08:23:51;1.30;;;1.20;;
16963;SDS011;8598;50.508;10.436;2022-09-01T08:26:20;1.60;;;1.20;;
16963;SDS011;8598;50.508;10.436;2022-09-01T08:28:48;1.97;;;1.40;;
16963;SDS011;8598;50.508;10.436;2022-09-01T08:31:16;4.20;;;1.20;;
16963;SDS011;8598;50.508;10.436;2022-09-01T08:33:44;1.40;;;1.00;;
16963;SDS011;8598;50.508;10.436;2022-09-01T08:36:13;1.30;;;1.10;;
16963;SDS011;8598;50.508;10.436;2022-09-01T08:38:43;1.20;;;0.90;;
16963;SDS011;8598;50.508;10.436;2022-09-01T08:41:13;4.80;;;1.33;;
16963;SDS011;8598;50.508;10.436;2022-09-01T08:43:46;3.03;;;1.30;;
16963;SDS011;8598;50.508;10.436;2022-09-01T08:46:21;3.87;;;1.13;;
16963;SDS011;8598;50.508;10.436;2022-09-01T08:48:53;2.37;;;0.90;;
16963;SDS011;8598;50.508;10.436;2022-09-01T08:51:23;3.50;;;1.10;;
16963;SDS011;8598;50.508;10.436;2022-09-01T08:54:05;0.77;;;0.70;;
16963;SDS011;8598;50.508;10.436;2022-09-01T08:56:46;1.17;;;1.00;;
16963;SDS011;8598;50.508;10.436;2022-09-01T08:59:14;2.37;;;1.23;;
16963;SDS011;8598;50.508;10.436;2022-09-01T09:01:42;2.33;;;1.20;;
16963;SDS011;8598;50.508;10.436;2022-09-01T09:04:24;2.13;;;1.03;;
16963;SDS011;8598;50.508;10.436;2022-09-01T09:07:03;1.33;;;0.93;;
16963;SDS011;8598;50.508;10.436;2022-09-01T09:09:39;1.10;;;0.97;;
16963;SDS011;8598;50.508;10.436;2022-09-01T09:12:12;1.80;;;1.10;;
16963;SDS011;8598;50.508;10.436;2022-09-01T09:14:53;2.50;;;1.20;;
16963;SDS011;8598;50.508;10.436;2022-09-01T09:17:33;2.00;;;1.13;;
16963;SDS011;8598;50.508;10.436;2022-09-01T09:20:04;1.70;;;1.50;;
16963;SDS011;8598;50.508;10.436;2022-09-01T09:22:32;3.40;;;1.10;;
16963;SDS011;8598;50.508;10.436;2022-09-01T09:25:03;2.30;;;1.43;;
16963;SDS011;8598;50.508;10.436;2022-09-01T09:27:35;2.00;;;1.30;;
16963;SDS011;8598;50.508;10.436;2022-09-01T09:30:04;3.77;;;0.93;;
16963;SDS011;8598;50.508;10.436;2022-09-01T09:32:44;2.03;;;1.40;;
16963;SDS011;8598;50.508;10.436;2022-09-01T09:35:25;0.97;;;0.90;;
16963;SDS011;8598;50.508;10.436;2022-09-01T09:37:55;1.27;;;0.80;;
16963;SDS011;8598;50.508;10.436;2022-09-01T09:40:53;1.80;;;1.20;;
16963;SDS011;8598;50.508;10.436;2022-09-01T09:43:23;1.80;;;1.20;;
16963;SDS011;8598;50.508;10.436;2022-09-01T09:45:52;0.83;;;0.83;;
16963;SDS011;8598;50.508;10.436;2022-09-01T09:48:46;3.97;;;1.20;;
16963;SDS011;8598;50.508;10.436;2022-09-01T09:51:14;2.97;;;1.20;;
16963;SDS011;8598;50.508;10.436;2022-09-01T09:53:42;2.37;;;1.00;;
16963;SDS011;8598;50.508;10.436;2022-09-01T09:56:14;1.20;;;0.80;;
16963;SDS011;8598;50.508;10.436;2022-09-01T09:58:43;1.93;;;1.00;;
16963;SDS011;8598;50.508;10.436;2022-09-01T10:01:12;2.27;;;1.07;;
16963;SDS011;8598;50.508;10.436;2022-09-01T10:03:53;2.20;;;1.10;;
16963;SDS011;8598;50.508;10.436;2022-09-01T10:06:32;1.87;;;1.17;;
16963;SDS011;8598;50.508;10.436;2022-09-01T10:09:02;1.30;;;1.20;;
16963;SDS011;8598;50.508;10.436;2022-09-01T10:11:35;2.00;;;0.90;;
16963;SDS011;8598;50.508;10.436;2022-09-01T10:14:05;1.60;;;1.10;;
16963;SDS011;8598;50.508;10.436;2022-09-01T10:16:35;1.13;;;0.97;;
16963;SDS011;8598;50.508;10.436;2022-09-01T10:19:05;5.37;;;1.30;;
16963;SDS011;8598;50.508;10.436;2022-09-01T10:21:37;1.30;;;1.10;;
16963;SDS011;8598;50.508;10.436;2022-09-01T10:24:15;2.60;;;0.80;;
16963;SDS011;8598;50.508;10.436;2022-09-01T10:26:46;1.87;;;1.10;;
16963;SDS011;8598;50.508;10.436;2022-09-01T10:29:17;2.40;;;0.90;;
16963;SDS011;8598;50.508;10.436;2022-09-01T10:31:49;1.63;;;1.00;;
16963;SDS011;8598;50.508;10.436;2022-09-01T10:34:18;2.23;;;1.10;;
16963;SDS011;8598;50.508;10.436;2022-09-01T10:36:46;3.67;;;0.97;;
16963;SDS011;8598;50.508;10.436;2022-09-01T10:39:15;1.80;;;1.17;;
16963;SDS011;8598;50.508;10.436;2022-09-01T10:41:47;1.10;;;1.00;;
16963;SDS011;8598;50.508;10.436;2022-09-01T10:44:20;2.43;;;1.07;;
16963;SDS011;8598;50.508;10.436;2022-09-01T10:46:50;2.63;;;0.90;;
16963;SDS011;8598;50.508;10.436;2022-09-01T10:49:19;1.20;;;1.00;;
16963;SDS011;8598;50.508;10.436;2022-09-01T10:55:14;2.23;;;1.07;;
16963;SDS011;8598;50.508;10.436;2022-09-01T10:57:47;3.27;;;1.10;;
16963;SDS011;8598;50.508;10.436;2022-09-01T11:03:47;3.87;;;1.83;;
16963;SDS011;8598;50.508;10.436;2022-09-01T11:09:26;2.87;;;1.20;;
16963;SDS011;8598;50.508;10.436;2022-09-01T11:12:03;1.13;;;1.00;;
16963;SDS011;8598;50.508;10.436;2022-09-01T11:14:47;3.63;;;1.13;;
16963;SDS011;8598;50.508;10.436;2022-09-01T11:17:17;1.03;;;0.90;;
16963;SDS011;8598;50.508;10.436;2022-09-01T11:19:46;1.10;;;0.80;;
16963;SDS011;8598;50.508;10.436;2022-09-01T11:22:23;4.93;;;1.20;;
16963;SDS011;8598;50.508;10.436;2022-09-01T11:28:04;1.23;;;0.93;;
16963;SDS011;8598;50.508;10.436;2022-09-01T11:30:58;2.77;;;1.00;;
16963;SDS011;8598;50.508;10.436;2022-09-01T11:33:40;2.67;;;1.10;;
16963;SDS011;8598;50.508;10.436;2022-09-01T11:36:22;1.53;;;0.77;;
16963;SDS011;8598;50.508;10.436;2022-09-01T11:38:55;1.97;;;0.97;;
16963;SDS011;8598;50.508;10.436;2022-09-01T11:41:28;2.10;;;0.70;;
16963;SDS011;8598;50.508;10.436;2022-09-01T11:43:59;2.23;;;1.10;;
16963;SDS011;8598;50.508;10.436;2022-09-01T11:46:30;2.20;;;0.77;;
16963;SDS011;8598;50.508;10.436;2022-09-01T11:49:02;4.87;;;1.10;;
16963;SDS011;8598;50.508;10.436;2022-09-01T11:51:41;1.90;;;0.87;;
16963;SDS011;8598;50.508;10.436;2022-09-01T11:54:11;3.83;;;1.27;;
16963;SDS011;8598;50.508;10.436;2022-09-01T11:56:39;5.70;;;1.10;;
16963;SDS011;8598;50.508;10.436;2022-09-01T11:59:09;1.40;;;1.00;;
16963;SDS011;8598;50.508;10.436;2022-09-01T12:01:38;1.20;;;0.80;;
16963;SDS011;8598;50.508;10.436;2022-09-01T12:04:19;4.13;;;1.00;;
16963;SDS011;8598;50.508;10.436;2022-09-01T12:06:50;1.03;;;1.00;;
16963;SDS011;8598;50.508;10.436;2022-09-01T12:09:20;3.30;;;0.90;;
16963;SDS011;8598;50.508;10.436;2022-09-01T12:11:47;2.10;;;0.90;;
16963;SDS011;8598;50.508;10.436;2022-09-01T12:14:19;1.40;;;1.00;;
16963;SDS011;8598;50.508;10.436;2022-09-01T12:16:56;2.67;;;1.00;;
16963;SDS011;8598;50.508;10.436;2022-09-01T12:19:25;1.37;;;0.90;;
16963;SDS011;8598;50.508;10.436;2022-09-01T12:21:58;1.37;;;0.90;;
16963;SDS011;8598;50.508;10.436;2022-09-01T12:24:27;0.97;;;0.93;;
16963;SDS011;8598;50.508;10.436;2022-09-01T12:26:59;4.57;;;0.93;;
16963;SDS011;8598;50.508;10.436;2022-09-01T12:29:26;2.57;;;1.20;;
16963;SDS011;8598;50.508;10.436;2022-09-01T12:31:57;2.33;;;1.20;;
16963;SDS011;8598;50.508;10.436;2022-09-01T12:34:27;3.33;;;0.90;;
16963;SDS011;8598;50.508;10.436;2022-09-01T12:37:04;1.87;;;1.30;;
16963;SDS011;8598;50.508;10.436;2022-09-01T12:39:33;1.33;;;1.13;;
16963;SDS011;8598;50.508;10.436;2022-09-01T12:42:03;2.13;;;1.30;;
16963;SDS011;8598;50.508;10.436;2022-09-01T12:44:41;2.53;;;1.00;;
16963;SDS011;8598;50.508;10.436;2022-09-01T12:47:13;0.97;;;0.87;;
16963;SDS011;8598;50.508;10.436;2022-09-01T12:53:16;1.20;;;1.10;;
16963;SDS011;8598;50.508;10.436;2022-09-01T12:55:53;2.33;;;1.30;;
16963;SDS011;8598;50.508;10.436;2022-09-01T12:58:24;2.47;;;1.03;;
16963;SDS011;8598;50.508;10.436;2022-09-01T13:00:54;5.13;;;1.10;;
16963;SDS011;8598;50.508;10.436;2022-09-01T13:03:24;1.47;;;1.00;;
16963;SDS011;8598;50.508;10.436;2022-09-01T13:05:53;5.03;;;1.43;;
16963;SDS011;8598;50.508;10.436;2022-09-01T13:08:23;1.83;;;1.10;;
16963;SDS011;8598;50.508;10.436;2022-09-01T13:10:53;2.60;;;1.00;;
16963;SDS011;8598;50.508;10.436;2022-09-01T13:13:21;2.27;;;1.10;;
16963;SDS011;8598;50.508;10.436;2022-09-01T13:15:50;1.10;;;1.00;;
16963;SDS011;8598;50.508;10.436;2022-09-01T13:18:19;2.37;;;1.10;;
16963;SDS011;8598;50.508;10.436;2022-09-01T13:20:50;1.27;;;1.17;;
16963;SDS011;8598;50.508;10.436;2022-09-01T13:23:18;1.77;;;1.00;;
16963;SDS011;8598;50.508;10.436;2022-09-01T13:25:45;2.13;;;1.00;;
16963;SDS011;8598;50.508;10.436;2022-09-01T13:28:12;1.83;;;1.40;;
16963;SDS011;8598;50.508;10.436;2022-09-01T13:30:40;2.60;;;1.27;;
16963;SDS011;8598;50.508;10.436;2022-09-01T13:33:08;2.83;;;1.13;;
16963;SDS011;8598;50.508;10.436;2022-09-01T13:35:36;1.57;;;0.90;;
16963;SDS011;8598;50.508;10.436;2022-09-01T13:38:05;5.40;;;1.33;;
16963;SDS011;8598;50.508;10.436;2022-09-01T13:40:33;1.77;;;1.07;;
16963;SDS011;8598;50.508;10.436;2022-09-01T13:43:00;4.80;;;1.10;;
16963;SDS011;8598;50.508;10.436;2022-09-01T13:45:28;2.73;;;2.03;;
16963;SDS011;8598;50.508;10.436;2022-09-01T13:47:55;2.87;;;1.13;;
16963;SDS011;8598;50.508;10.436;2022-09-01T13:50:22;2.00;;;1.07;;
16963;SDS011;8598;50.508;10.436;2022-09-01T13:52:51;1.00;;;0.90;;
16963;SDS011;8598;50.508;10.436;2022-09-01T13:55:21;2.13;;;1.23;;
16963;SDS011;8598;50.508;10.436;2022-09-01T13:57:50;1.23;;;0.90;;
16963;SDS011;8598;50.508;10.436;2022-09-01T14:00:23;1.90;;;1.10;;
16963;SDS011;8598;50.508;10.436;2022-09-01T14:02:53;2.90;;;0.90;;
16963;SDS011;8598;50.508;10.436;2022-09-01T14:05:24;2.40;;;1.17;;
16963;SDS011;8598;50.508;10.436;2022-09-01T14:07:52;2.67;;;1.00;;
16963;SDS011;8598;50.508;10.436;2022-09-01T14:10:22;3.03;;;1.00;;
16963;SDS011;8598;50.508;10.436;2022-09-01T14:12:50;3.03;;;1.20;;
16963;SDS011;8598;50.508;10.436;2022-09-01T14:15:18;1.47;;;0.90;;
16963;SDS011;8598;50.508;10.436;2022-09-01T14:17:46;3.93;;;1.10;;
16963;SDS011;8598;50.508;10.436;2022-09-01T14:20:14;5.57;;;1.10;;
16963;SDS011;8598;50.508;10.436;2022-09-01T14:22:43;2.47;;;1.20;;
16963;SDS011;8598;50.508;10.436;2022-09-01T14:25:10;0.93;;;0.83;;
16963;SDS011;8598;50.508;10.436;2022-09-01T14:27:39;4.13;;;1.10;;
16963;SDS011;8598;50.508;10.436;2022-09-01T14:30:08;1.27;;;1.00;;
16963;SDS011;8598;50.508;10.436;2022-09-01T14:32:41;4.07;;;0.90;;
16963;SDS011;8598;50.508;10.436;2022-09-01T14:35:08;1.13;;;0.90;;
16963;SDS011;8598;50.508;10.436;2022-09-01T14:37:36;1.50;;;0.97;;
16963;SDS011;8598;50.508;10.436;2022-09-01T14:40:03;1.30;;;1.00;;
16963;SDS011;8598;50.508;10.436;2022-09-01T14:42:32;1.77;;;1.00;;
16963;SDS011;8598;50.508;10.436;2022-09-01T14:45:02;1.57;;;1.03;;
16963;SDS011;8598;50.508;10.436;2022-09-01T14:47:29;1.10;;;1.00;;
16963;SDS011;8598;50.508;10.436;2022-09-01T14:49:56;1.83;;;1.00;;
16963;SDS011;8598;50.508;10.436;2022-09-01T14:52:23;3.20;;;0.80;;
16963;SDS011;8598;50.508;10.436;2022-09-01T14:54:51;2.23;;;1.20;;
16963;SDS011;8598;50.508;10.436;2022-09-01T14:57:18;1.67;;;1.10;;
16963;SDS011;8598;50.508;10.436;2022-09-01T14:59:45;1.30;;;0.93;;
16963;SDS011;8598;50.508;10.436;2022-09-01T15:02:13;1.87;;;0.93;;
16963;SDS011;8598;50.508;10.436;2022-09-01T15:04:40;1.97;;;1.20;;
16963;SDS011;8598;50.508;10.436;2022-09-01T15:07:07;3.17;;;1.00;;
16963;SDS011;8598;50.508;10.436;2022-09-01T15:09:34;2.20;;;1.10;;
16963;SDS011;8598;50.508;10.436;2022-09-01T15:12:01;1.40;;;0.87;;
16963;SDS011;8598;50.508;10.436;2022-09-01T15:14:28;2.10;;;1.10;;
16963;SDS011;8598;50.508;10.436;2022-09-01T15:16:56;2.47;;;1.20;;
16963;SDS011;8598;50.508;10.436;2022-09-01T15:19:25;1.43;;;0.90;;
16963;SDS011;8598;50.508;10.436;2022-09-01T15:21:51;1.90;;;1.10;;